Stunt Ranch Reserve, Santa Monica Mtns, California Weather observations

Data are for 10 minute period ending at time listed.
 Day   Time   Solar   Ave.   Ave.  Ave.  Vector  Max.   Baro.   Total    
  of    of     Rad.   Air    Rel.  Wind   Wind   Wind  Press.  Precip.   
Year   Day            Temp.  Hum.  Speed  Dir.   Gust                    
2016   (PST)  Kw/m2    F      %     mph   deg.    mph    mb.     in.     
-------------------------------------------------------------------------
 338    5:10   0.00   52.6    14   11.0    20    27.6   972.6    0.00 
 338    5:20   0.00   52.5    14    7.6    14    18.3   972.6    0.00 
 338    5:30   0.00   52.5    14    6.3    35    15.6   972.6    0.00 
 338    5:40   0.00   52.7    14    8.1    36    17.7   972.6    0.00 
 338    5:50   0.00   52.6    14    7.1    24    18.5   972.6    0.00 
 338    6:00   0.00   52.5    14    6.7     6    18.9   972.6    0.00 
 338    6:10   0.00   52.3    14    8.1    18    20.0   972.6    0.00 
 338    6:20   0.00   52.3    14    5.9    10    19.8   972.6    0.00 
 338    6:30   0.00   52.4    14    7.6   351    17.4   972.6    0.00 
 338    6:40   0.00   52.3    14    7.0   347    16.2   972.6    0.00 
 338    6:50   0.01   52.3    14    8.0   346    15.6   972.6    0.00 
 338    7:00   0.01   52.2    14    8.5   342    18.6   972.2    0.00 
 338    7:10   0.01   52.0    14    5.8   336    13.6   972.6    0.00 
 338    7:20   0.01   52.3    14    7.6   334    14.3   972.6    0.00 
 338    7:30   0.02   52.4    13    4.6   303    13.1   972.6    0.00 
 338    7:40   0.03   53.0    13    3.9   222    12.3   972.9    0.00 
 338    7:50   0.03   52.7    13    2.7   260     7.9   972.9    0.00 
 338    8:00   0.09   53.1    13    2.6   269     7.0   973.3    0.00 
 338    8:10   0.19   55.4    12    1.7   291     4.9   973.3    0.00 
 338    8:20   0.22   57.2    10    3.5    84    10.9   973.6    0.00 
 338    8:30   0.25   57.7    11    3.6    81     7.7   973.9    0.00 
 338    8:40   0.28   58.6    10    2.8    88     7.5   973.9    0.00 
 338    8:50   0.30   59.6    10    2.5    26     8.4   974.3    0.00 
 338    9:00   0.33   59.5    10    5.2   112    10.9   974.3    0.00 
 338    9:10   0.35   60.1     9    3.5   158     6.2   974.3    0.00 
 338    9:20   0.37   60.7     9    4.4   145     9.3   974.3    0.00 
 338    9:30   0.40   61.0     9    5.3   106    12.7   974.3    0.00 
 338    9:40   0.42   61.5     9    4.2   126     9.5   974.3    0.00 
 338    9:50   0.43   62.1     9    3.7   201     6.7   974.3    0.00 
 338   10:00   0.45   62.9     9    2.1   224     6.2   974.3    0.00 
 338   10:10   0.47   63.5     8    5.9    91    13.3   974.3    0.00 
 338   10:20   0.49   63.3     8    3.0    66    10.6   974.3    0.00 
 338   10:30   0.50   63.6     9    7.8    55    18.4   974.3    0.00 
 338   10:40   0.51   63.6     8    9.1    53    16.6   973.9    0.00 
 338   10:50   0.53   64.0     8    7.8    56    16.7   973.9    0.00 
 338   11:00   0.53   64.4     8    8.6    50    15.5   973.6    0.00 
 338   11:10   0.54   65.6     8    5.1    16    13.2   973.3    0.00 
 338   11:20   0.55   66.0     8    3.9     7    13.7   973.3    0.00 
 338   11:30   0.55   67.5     8    2.2   294     7.5   973.3    0.00 
 338   11:40   0.55   68.2     7    3.8   303    10.7   972.9    0.00 
 338   11:50   0.55   68.1     7    5.3   303    18.1   972.6    0.00 
 338   12:00   0.56   68.3     8    6.3   318    15.2   972.6    0.00 
 338   12:10   0.55   69.0     8    4.7   312    13.5   972.2    0.00 
 338   12:20   0.55   69.3     8    6.1   315    13.4   971.9    0.00 
 338   12:30   0.55   70.4     8    5.0   309    16.1   971.9    0.00 
 338   12:40   0.54   69.7     7    7.8   319    16.1   971.6    0.00 
 338   12:50   0.53   70.1     8    5.0   316    15.9   971.6    0.00 
 338   13:00   0.49   70.1     8    7.6   323    19.9   971.6    0.00 
 338   13:10   0.51   70.4     8    6.8   313    17.8   971.2    0.00 
 338   13:20   0.49   70.4     8    5.6   330    14.0   971.2    0.00 
 338   13:30   0.48   70.8     8    4.2   290    13.4   971.2    0.00 
 338   13:40   0.46   70.5     7    5.2   332    15.3   971.2    0.00 
 338   13:50   0.44   70.6     8    2.8   311    10.8   970.9    0.00 
 338   14:00   0.42   70.8     8    2.6   323    11.7   970.9    0.00 
 338   14:10   0.40   70.9     8    3.6   314    11.7   970.9    0.00 
 338   14:20   0.38   69.2     8    5.8    74    10.4   970.9    0.00 
 338   14:30   0.35   68.0     8    5.2    82     9.6   970.9    0.00 
 338   14:40   0.33   68.6     8    2.6   138     7.7   970.9    0.00 
 338   14:50   0.30   69.3     9    2.5    34    14.2   970.9    0.00 
 338   15:00   0.28   68.2     9    8.1    59    16.2   970.9    0.00 
 338   15:10   0.25   67.6     9    7.9    49    17.0   970.5    0.00 
 338   15:20   0.22   67.7     9    7.5     7    16.8   970.5    0.00 
 338   15:30   0.20   67.7     9    7.1     0    14.0   970.5    0.00 
 338   15:40   0.13   67.0    10    6.4   345    14.4   970.5    0.00 
 338   15:50   0.04   66.6    11    6.5   326    16.5   970.5    0.00 
 338   16:00   0.03   65.7    11    2.8   298    10.6   970.9    0.00 
 338   16:10   0.03   65.7    11    2.9   263     7.9   970.9    0.00 
 338   16:20   0.01   65.3    12    2.7   206     5.5   970.9    0.00 
 338   16:30   0.01   63.8    13    1.9   266     4.9   970.9    0.00 
 338   16:40   0.01   61.8    15    2.6   272     6.9   971.2    0.00 
 338   16:50   0.01   61.0    14    1.9   105     5.3   971.2    0.00 
 338   17:00   0.00   60.9    14    3.0    93     6.4   971.2    0.00 
 338   17:10   0.00   61.6    13    3.4    49     8.6   971.2    0.00 
 338   17:20   0.00   61.7    13    3.4     9     8.6   971.2    0.00 
 338   17:30   0.00   61.5    13    2.8    18     8.7   971.6    0.00 
 338   17:40   0.00   61.4    13    3.8    56     8.0   971.6    0.00 
 338   17:50   0.00   61.2    13    4.2    38     9.7   971.2    0.00 
 338   18:00   0.00   61.6    13    4.6    27    11.2   971.2    0.00 
 338   18:10   0.00   61.2    14    2.4   278     5.5   971.2    0.00 
 338   18:20   0.00   60.7    14    3.4   293     8.0   971.6    0.00 
 338   18:30   0.00   62.3    13    1.7   116     5.6   971.6    0.00 
 338   18:40   0.00   61.4    14    4.0   128     7.6   971.6    0.00 
 338   18:50   0.00   60.5    15    4.2    96     7.6   971.6    0.00 
 338   19:00   0.00   60.2    15    2.6    70     6.6   971.6    0.00 
 338   19:10   0.00   61.7    14    3.0    50     6.5   971.6    0.00 
 338   19:20   0.00   62.3    14    1.7   251     5.3   971.6    0.00 
 338   19:30   0.00   60.7    15    3.0   164     6.4   971.6    0.00 
 338   19:40   0.00   59.8    15    2.7   159     5.7   971.6    0.00 
 338   19:50   0.00   60.9    14    6.7   138    12.9   971.6    0.00 
 338   20:00   0.00   61.8    14    4.5    93     8.0   971.6    0.00 
 338   20:10   0.00   62.1    13    3.0   117     6.9   971.6    0.00 
 338   20:20   0.00   62.3    13    6.2   124    10.9   971.6    0.00 
 338   20:30   0.00   62.8    13    5.4   116     8.8   971.6    0.00 
 338   20:40   0.00   61.9    13    6.0   122     9.6   971.6    0.00 
 338   20:50   0.00   62.2    13    3.7   124     8.8   971.9    0.00 
 338   21:00   0.00   62.1    13    4.9   136     9.9   971.9    0.00 
 338   21:10   0.00   62.2    13    4.8   125     9.5   971.9    0.00 
 338   21:20   0.00   61.8    13    5.4   143     9.0   971.6    0.00 
 338   21:30   0.00   61.5    14    5.1   149     8.2   971.6    0.00 
 338   21:40   0.00   61.1    14    4.0   157     8.6   971.9    0.00 
 338   21:50   0.00   61.9    14    4.7   161     9.3   971.9    0.00 
 338   22:00   0.00   62.2    13    4.4   146    10.3   971.9    0.00 
 338   22:10   0.00   61.4    14    3.2   148     7.8   971.9    0.00 
 338   22:20   0.00   59.9    16    2.6    99     4.7   971.9    0.00 
 338   22:30   0.00   58.9    16    2.1    98     3.6   971.9    0.00 
 338   22:40   0.00   58.3    16    0.8   124     2.7   971.9    0.00 
 338   22:50   0.00   58.0    16    0.6   107     2.4   971.9    0.00 
 338   23:00   0.00   57.7    17    1.2   119     3.8   971.9    0.00 
 338   23:10   0.00   57.6    16    1.3   259     2.3   971.9    0.00 
 338   23:20   0.00   57.3    17    0.9   124     2.8   971.9    0.00 
 338   23:30   0.00   57.7    16    1.1   156     2.7   971.9    0.00 
 338   23:40   0.00   58.1    16    0.5    95     2.0   971.9    0.00 
 338   23:50   0.00   57.5    17    2.2   280     3.8   971.9    0.00 
 339    0:00   0.00   57.4    16    1.3   282     3.0   971.9    0.00 
 339    0:10   0.00   57.4    16    1.3   117     2.3   971.9    0.00 
 339    0:20   0.00   58.4    16    1.5   152     3.0   971.9    0.00 
 339    0:30   0.00   58.6    16    1.4   133     2.6   971.9    0.00 
 339    0:40   0.00   58.7    16    0.7   126     2.3   971.9    0.00 
 339    0:50   0.00   59.1    15    0.8   127     2.7   971.9    0.00 
 339    1:00   0.00   59.3    15    0.5   143     1.7   971.6    0.00 
 339    1:10   0.00   59.4    15    0.7   142     2.6   971.9    0.00 
 339    1:20   0.00   59.1    16    0.4   344     2.0   971.9    0.00 
 339    1:30   0.00   59.1    16    0.5   150     1.8   971.9    0.00 
 339    1:40   0.00   59.2    16    0.0     0     0.0   971.9    0.00 
 339    1:50   0.00   58.7    16    1.1   160     3.2   971.9    0.00 
 339    2:00   0.00   58.0    17    2.3   147     3.7   971.9    0.00 
 339    2:10   0.00   58.5    16    1.5   156     2.9   971.9    0.00 
 339    2:20   0.00   58.9    17    0.9   187     2.3   971.9    0.00 
 339    2:30   0.00   58.6    17    0.2   205     1.3   971.9    0.00 
 339    2:40   0.00   58.9    16    0.9   227     2.7   971.9    0.00 
 339    2:50   0.00   59.3    16    1.7   213     2.6   971.6    0.00 
 339    3:00   0.00   58.7    16    1.3   218     2.0   971.6    0.00 
 339    3:10   0.00   58.1    17    1.9   193     4.1   971.6    0.00 
 339    3:20   0.00   58.0    17    1.5   246     2.4   971.6    0.00 
 339    3:30   0.00   57.5    18    0.3   275     2.0   971.6    0.00 
 339    3:40   0.00   58.2    17    0.7   151     1.5   971.6    0.00 
 339    3:50   0.00   57.7    18    2.2   177     3.9   971.2    0.00 
 339    4:00   0.00   56.8    19    3.2   148     5.0   971.2    0.00 
 339    4:10   0.00   55.8    20    3.7   120     7.8   971.2    0.00 
 339    4:20   0.00   56.8    19    3.3   124     4.7   971.2    0.00 
 339    4:30   0.00   58.3    17    1.3   135     3.4   971.2    0.00 
 339    4:40   0.00   59.6    16    1.4   132     2.3   971.2    0.00 
 339    4:50   0.00   59.8    16    1.5   196     3.0   971.2    0.00 
 339    5:00   0.00   59.6    16    2.7   228     3.6   971.2    0.00 

Return to Stunt Ranch Reserve graphs page.


Western Regional Climate Center,wrcc@dri.edu